TAU YMMB-YMML
Flight info
| Callsign | TAU |
|---|---|
| Flight time | 0h 18m |
| Altitude | 2000 |
| Route | MMBNM DCT MMBNF DCT MMBNI DCT D086J DCT DUGOT DCT D050J DCT SUSAK DCT RML01 DCT ROKDL/N0112F030 DCT MMLSH |
| Aircraft | P28A/L-SDFRY/C |
Departure
| Time | 2026-04-15 08:04 |
|---|---|
| Airport | Melbourne Moorabbin Airport (YMMB) |
Arrival
| Time | 2026-04-15 08:22 |
|---|---|
| Airport | Melbourne Airport (YMML) |
| Time | Latitude | Longitude | Altitude | Speed | Heading |
|---|---|---|---|---|---|
| 2026-04-15 08:00 | -37.98370 | 145.09964 | 38 ft | 0 kts | 86° |
| 2026-04-15 08:01 | -37.98370 | 145.09969 | 41 ft | 2 kts | 85° |
| 2026-04-15 08:01 | -37.98364 | 145.10017 | 40 ft | 9 kts | 57° |
| 2026-04-15 08:01 | -37.98331 | 145.10031 | 40 ft | 0 kts | 356° |
| 2026-04-15 08:03 | -37.98330 | 145.10031 | 40 ft | 0 kts | 356° |
| 2026-04-15 08:03 | -37.98325 | 145.10030 | 40 ft | 9 kts | 355° |
| 2026-04-15 08:03 | -37.98035 | 145.10004 | 65 ft | 68 kts | 354° |
| 2026-04-15 08:03 | -37.97469 | 145.09944 | 236 ft | 91 kts | 354° |
| 2026-04-15 08:04 | -37.96849 | 145.09875 | 591 ft | 91 kts | 354° |
| 2026-04-15 08:04 | -37.96206 | 145.09825 | 926 ft | 92 kts | 355° |
| 2026-04-15 08:04 | -37.95591 | 145.09787 | 1214 ft | 100 kts | 354° |
| 2026-04-15 08:04 | -37.94889 | 145.09749 | 1539 ft | 103 kts | 353° |
| 2026-04-15 08:05 | -37.94193 | 145.09712 | 1961 ft | 93 kts | 352° |
| 2026-04-15 08:05 | -37.93523 | 145.09669 | 2231 ft | 101 kts | 349° |
| 2026-04-15 08:05 | -37.92778 | 145.09568 | 2477 ft | 109 kts | 347° |
| 2026-04-15 08:05 | -37.91984 | 145.09419 | 2589 ft | 124 kts | 345° |
| 2026-04-15 08:06 | -37.91101 | 145.09204 | 2623 ft | 137 kts | 344° |
| 2026-04-15 08:06 | -37.90140 | 145.08951 | 2524 ft | 150 kts | 343° |
| 2026-04-15 08:06 | -37.89108 | 145.08706 | 2548 ft | 149 kts | 351° |
| 2026-04-15 08:06 | -37.88027 | 145.08690 | 2355 ft | 160 kts | 357° |
| 2026-04-15 08:07 | -37.86928 | 145.08729 | 2285 ft | 159 kts | 358° |
| 2026-04-15 08:07 | -37.85821 | 145.08787 | 2297 ft | 154 kts | 359° |
| 2026-04-15 08:07 | -37.84759 | 145.08844 | 2330 ft | 153 kts | 358° |
| 2026-04-15 08:07 | -37.83694 | 145.08961 | 2308 ft | 155 kts | 2° |
| 2026-04-15 08:08 | -37.82607 | 145.09097 | 2233 ft | 157 kts | 2° |
| 2026-04-15 08:08 | -37.81511 | 145.09181 | 2126 ft | 158 kts | 357° |
| 2026-04-15 08:08 | -37.80450 | 145.08991 | 2101 ft | 154 kts | 349° |
| 2026-04-15 08:08 | -37.79404 | 145.08786 | 2154 ft | 149 kts | 349° |
| 2026-04-15 08:09 | -37.78383 | 145.08566 | 2202 ft | 148 kts | 348° |
| 2026-04-15 08:09 | -37.77371 | 145.08281 | 2217 ft | 149 kts | 346° |
| 2026-04-15 08:09 | -37.76366 | 145.08004 | 2227 ft | 150 kts | 346° |
| 2026-04-15 08:09 | -37.75354 | 145.07693 | 2280 ft | 148 kts | 344° |
| 2026-04-15 08:10 | -37.74381 | 145.07306 | 2309 ft | 147 kts | 335° |
| 2026-04-15 08:10 | -37.73516 | 145.06686 | 2481 ft | 140 kts | 325° |
| 2026-04-15 08:10 | -37.72679 | 145.05949 | 2369 ft | 149 kts | 323° |
| 2026-04-15 08:10 | -37.71782 | 145.05452 | 2507 ft | 141 kts | 340° |
| 2026-04-15 08:11 | -37.70836 | 145.05099 | 2624 ft | 138 kts | 345° |
| 2026-04-15 08:11 | -37.69915 | 145.04967 | 2823 ft | 134 kts | 354° |
| 2026-04-15 08:11 | -37.68943 | 145.04940 | 2716 ft | 151 kts | 358° |
| 2026-04-15 08:11 | -37.67871 | 145.04950 | 2550 ft | 161 kts | 360° |
| 2026-04-15 08:12 | -37.66842 | 145.04944 | 2533 ft | 153 kts | 357° |
| 2026-04-15 08:12 | -37.65676 | 145.04932 | 2220 ft | 162 kts | 359° |
| 2026-04-15 08:12 | -37.64584 | 145.04961 | 2274 ft | 154 kts | 0° |
| 2026-04-15 08:12 | -37.63866 | 145.05002 | 2231 ft | 155 kts | 2° |
| 2026-04-15 08:13 | -37.62813 | 145.05089 | 2294 ft | 150 kts | 1° |
| 2026-04-15 08:13 | -37.61777 | 145.05095 | 2367 ft | 147 kts | 358° |
| 2026-04-15 08:13 | -37.60448 | 145.04956 | 2495 ft | 143 kts | 343° |
| 2026-04-15 08:13 | -37.59808 | 145.04713 | 2596 ft | 139 kts | 338° |
| 2026-04-15 08:14 | -37.59166 | 145.03844 | 2536 ft | 151 kts | 288° |
| 2026-04-15 08:14 | -37.59148 | 145.02494 | 2456 ft | 153 kts | 266° |
| 2026-04-15 08:14 | -37.59203 | 145.01205 | 2610 ft | 145 kts | 266° |
| 2026-04-15 08:14 | -37.59311 | 144.99938 | 2617 ft | 147 kts | 264° |
| 2026-04-15 08:15 | -37.59446 | 144.98667 | 2584 ft | 148 kts | 263° |
| 2026-04-15 08:15 | -37.59559 | 144.97385 | 2632 ft | 147 kts | 266° |
| 2026-04-15 08:15 | -37.59625 | 144.96072 | 2532 ft | 153 kts | 269° |
| 2026-04-15 08:15 | -37.59666 | 144.94736 | 2540 ft | 150 kts | 268° |
| 2026-04-15 08:16 | -37.59708 | 144.93437 | 2588 ft | 147 kts | 269° |
| 2026-04-15 08:16 | -37.59746 | 144.92161 | 2606 ft | 148 kts | 269° |
| 2026-04-15 08:16 | -37.59799 | 144.90865 | 2616 ft | 148 kts | 261° |
| 2026-04-15 08:16 | -37.60437 | 144.89855 | 2557 ft | 155 kts | 207° |
| 2026-04-15 08:17 | -37.61492 | 144.89678 | 2611 ft | 152 kts | 183° |
| 2026-04-15 08:17 | -37.62538 | 144.89649 | 2710 ft | 148 kts | 188° |
| 2026-04-15 08:17 | -37.63595 | 144.89503 | 2598 ft | 158 kts | 188° |
| 2026-04-15 08:17 | -37.64668 | 144.89358 | 2355 ft | 148 kts | 188° |
| 2026-04-15 08:18 | -37.65573 | 144.89207 | 2052 ft | 116 kts | 189° |
| 2026-04-15 08:18 | -37.66209 | 144.88856 | 1869 ft | 92 kts | 227° |
| 2026-04-15 08:18 | -37.66450 | 144.88151 | 1700 ft | 88 kts | 273° |
| 2026-04-15 08:18 | -37.66417 | 144.87354 | 1455 ft | 93 kts | 273° |
| 2026-04-15 08:19 | -37.66352 | 144.86538 | 1182 ft | 94 kts | 277° |
| 2026-04-15 08:19 | -37.66310 | 144.85787 | 898 ft | 83 kts | 274° |
| 2026-04-15 08:19 | -37.66264 | 144.85081 | 625 ft | 79 kts | 278° |
| 2026-04-15 08:19 | -37.66216 | 144.84438 | 476 ft | 70 kts | 277° |
| 2026-04-15 08:20 | -37.66170 | 144.83885 | 409 ft | 54 kts | 270° |
| 2026-04-15 08:20 | -37.66141 | 144.83370 | 453 ft | 75 kts | 274° |
| 2026-04-15 08:20 | -37.66104 | 144.82603 | 625 ft | 98 kts | 274° |
| 2026-04-15 08:20 | -37.65830 | 144.81910 | 923 ft | 101 kts | 351° |
| 2026-04-15 08:21 | -37.65121 | 144.82011 | 1180 ft | 106 kts | 37° |
| 2026-04-15 08:21 | -37.65035 | 144.82938 | 1342 ft | 124 kts | 96° |
| 2026-04-15 08:21 | -37.65166 | 144.84127 | 1204 ft | 139 kts | 98° |
| 2026-04-15 08:21 | -37.65329 | 144.85222 | 1274 ft | 121 kts | 115° |
| 2026-04-15 08:22 | -37.66025 | 144.85723 | 1210 ft | 118 kts | 181° |
| 2026-04-15 08:22 | -37.66308 | 144.85093 | 855 ft | 94 kts | 276° |
| 2026-04-15 08:22 | -37.66200 | 144.84303 | 421 ft | 87 kts | 267° |
| 2026-04-15 08:22 | -37.66168 | 144.83773 | 408 ft | 28 kts | 316° |
| 2026-04-15 08:23 | -37.66166 | 144.83645 | 411 ft | 5 kts | 239° |
| 2026-04-15 08:23 | -37.66212 | 144.83658 | 410 ft | 12 kts | 170° |
| 2026-04-15 08:23 | -37.66338 | 144.83675 | 405 ft | 24 kts | 175° |
| 2026-04-15 08:23 | -37.66501 | 144.83753 | 399 ft | 26 kts | 117° |
| 2026-04-15 08:24 | -37.66508 | 144.83870 | 398 ft | 0 kts | 95° |
| 2026-04-15 08:25 | -37.66509 | 144.83876 | 398 ft | 6 kts | 92° |
| 2026-04-15 08:25 | -37.66517 | 144.84044 | 399 ft | 28 kts | 100° |
| 2026-04-15 08:25 | -37.66631 | 144.84161 | 394 ft | 21 kts | 172° |
| 2026-04-15 08:26 | -37.66696 | 144.84265 | 391 ft | 18 kts | 77° |
| 2026-04-15 08:26 | -37.66669 | 144.84425 | 392 ft | 19 kts | 68° |
| 2026-04-15 08:26 | -37.66591 | 144.84490 | 396 ft | 0 kts | 358° |
| 2026-04-15 08:33 | -37.66590 | 144.84490 | 396 ft | 1 kts | 14° |
| 2026-04-15 08:34 | -37.66618 | 144.84580 | 396 ft | 20 kts | 104° |
| 2026-04-15 08:34 | -37.66621 | 144.84784 | 398 ft | 29 kts | 34° |
| 2026-04-15 08:34 | -37.66413 | 144.84776 | 405 ft | 32 kts | 5° |
| 2026-04-15 08:34 | -37.66329 | 144.84787 | 407 ft | 0 kts | 4° |
| 2026-04-15 08:35 | -37.66323 | 144.84787 | 407 ft | 9 kts | 5° |
| 2026-04-15 08:35 | -37.66219 | 144.84682 | 408 ft | 39 kts | 275° |
| 2026-04-15 08:35 | -37.66188 | 144.84105 | 482 ft | 83 kts | 274° |
| 2026-04-15 08:35 | -37.66140 | 144.83263 | 617 ft | 108 kts | 276° |
| 2026-04-15 08:36 | -37.66044 | 144.82203 | 576 ft | 134 kts | 278° |
| 2026-04-15 08:36 | -37.65919 | 144.81198 | 1099 ft | 109 kts | 276° |
| 2026-04-15 08:36 | -37.66128 | 144.80306 | 1459 ft | 108 kts | 231° |
| 2026-04-15 08:36 | -37.66817 | 144.79886 | 1663 ft | 123 kts | 193° |
| 2026-04-15 08:37 | -37.67683 | 144.79633 | 1762 ft | 135 kts | 191° |
| 2026-04-15 08:37 | -37.68635 | 144.79546 | 1959 ft | 134 kts | 178° |
| 2026-04-15 08:37 | -37.69545 | 144.79831 | 2079 ft | 140 kts | 156° |
| 2026-04-15 08:37 | -37.70347 | 144.80521 | 2221 ft | 141 kts | 140° |
| 2026-04-15 08:38 | -37.71103 | 144.81317 | 2398 ft | 141 kts | 142° |
| 2026-04-15 08:38 | -37.71917 | 144.82178 | 2281 ft | 154 kts | 140° |
| 2026-04-15 08:38 | -37.72711 | 144.83044 | 2322 ft | 156 kts | 139° |
| 2026-04-15 08:38 | -37.73522 | 144.83980 | 2294 ft | 159 kts | 137° |
| 2026-04-15 08:39 | -37.74312 | 144.84900 | 2450 ft | 150 kts | 141° |
| 2026-04-15 08:39 | -37.75084 | 144.85833 | 2537 ft | 152 kts | 135° |
| 2026-04-15 08:39 | -37.75792 | 144.86797 | 2705 ft | 150 kts | 136° |
| 2026-04-15 08:39 | -37.76552 | 144.87796 | 2574 ft | 163 kts | 136° |
| 2026-04-15 08:40 | -37.77313 | 144.88917 | 2440 ft | 169 kts | 130° |
| 2026-04-15 08:40 | -37.78048 | 144.90061 | 2438 ft | 166 kts | 130° |
| 2026-04-15 08:40 | -37.78792 | 144.91185 | 2386 ft | 167 kts | 132° |
| 2026-04-15 08:40 | -37.79572 | 144.92314 | 2217 ft | 171 kts | 134° |
| 2026-04-15 08:41 | -37.80376 | 144.93429 | 2096 ft | 171 kts | 133° |
| 2026-04-15 08:41 | -37.81021 | 144.94340 | 1957 ft | 172 kts | 134° |